sensor_id;sensor_type;location;lat;lon;timestamp;P1;durP1;ratioP1;P2;durP2;ratioP2
61962;SDS011;47927;42.646;23.096;2023-07-13T00:02:08;5.50;;;2.63;;
61962;SDS011;47927;42.646;23.096;2023-07-13T00:04:34;5.05;;;2.53;;
61962;SDS011;47927;42.646;23.096;2023-07-13T00:06:59;6.38;;;2.92;;
61962;SDS011;47927;42.646;23.096;2023-07-13T00:09:25;4.88;;;2.75;;
61962;SDS011;47927;42.646;23.096;2023-07-13T00:11:53;5.28;;;2.75;;
61962;SDS011;47927;42.646;23.096;2023-07-13T00:14:21;8.95;;;3.05;;
61962;SDS011;47927;42.646;23.096;2023-07-13T00:16:47;7.32;;;3.05;;
61962;SDS011;47927;42.646;23.096;2023-07-13T00:19:13;7.88;;;3.15;;
61962;SDS011;47927;42.646;23.096;2023-07-13T00:21:40;4.93;;;2.80;;
61962;SDS011;47927;42.646;23.096;2023-07-13T00:24:07;5.63;;;2.97;;
61962;SDS011;47927;42.646;23.096;2023-07-13T00:26:38;7.05;;;2.80;;
61962;SDS011;47927;42.646;23.096;2023-07-13T00:29:04;6.20;;;3.05;;
61962;SDS011;47927;42.646;23.096;2023-07-13T00:31:31;8.05;;;3.00;;
61962;SDS011;47927;42.646;23.096;2023-07-13T00:33:56;4.80;;;2.47;;
61962;SDS011;47927;42.646;23.096;2023-07-13T00:36:22;5.13;;;2.67;;
61962;SDS011;47927;42.646;23.096;2023-07-13T00:38:48;4.55;;;2.50;;
61962;SDS011;47927;42.646;23.096;2023-07-13T00:41:13;5.45;;;2.70;;
61962;SDS011;47927;42.646;23.096;2023-07-13T00:43:39;7.22;;;3.13;;
61962;SDS011;47927;42.646;23.096;2023-07-13T00:46:20;5.30;;;3.03;;
61962;SDS011;47927;42.646;23.096;2023-07-13T00:48:48;5.00;;;2.70;;
61962;SDS011;47927;42.646;23.096;2023-07-13T00:51:16;6.78;;;2.97;;
61962;SDS011;47927;42.646;23.096;2023-07-13T00:53:47;4.78;;;2.72;;
61962;SDS011;47927;42.646;23.096;2023-07-13T00:56:12;5.65;;;2.97;;
61962;SDS011;47927;42.646;23.096;2023-07-13T00:58:38;6.05;;;2.70;;
61962;SDS011;47927;42.646;23.096;2023-07-13T01:01:04;6.05;;;3.00;;
61962;SDS011;47927;42.646;23.096;2023-07-13T01:03:29;13.45;;;3.35;;
61962;SDS011;47927;42.646;23.096;2023-07-13T01:05:55;7.35;;;3.00;;
61962;SDS011;47927;42.646;23.096;2023-07-13T01:08:21;7.97;;;2.85;;
61962;SDS011;47927;42.646;23.096;2023-07-13T01:10:54;7.88;;;3.45;;
61962;SDS011;47927;42.646;23.096;2023-07-13T01:13:21;7.22;;;3.13;;
61962;SDS011;47927;42.646;23.096;2023-07-13T01:15:48;6.93;;;2.95;;
61962;SDS011;47927;42.646;23.096;2023-07-13T01:18:16;6.97;;;3.47;;
61962;SDS011;47927;42.646;23.096;2023-07-13T01:21:01;12.63;;;3.55;;
61962;SDS011;47927;42.646;23.096;2023-07-13T01:23:29;7.72;;;3.17;;
61962;SDS011;47927;42.646;23.096;2023-07-13T01:25:57;7.95;;;3.13;;
61962;SDS011;47927;42.646;23.096;2023-07-13T01:28:23;8.20;;;3.78;;
61962;SDS011;47927;42.646;23.096;2023-07-13T01:30:52;7.53;;;3.15;;
61962;SDS011;47927;42.646;23.096;2023-07-13T01:33:19;12.80;;;3.72;;
61962;SDS011;47927;42.646;23.096;2023-07-13T01:35:45;8.18;;;3.50;;
61962;SDS011;47927;42.646;23.096;2023-07-13T01:38:13;10.38;;;3.97;;
61962;SDS011;47927;42.646;23.096;2023-07-13T01:40:40;10.00;;;3.50;;
61962;SDS011;47927;42.646;23.096;2023-07-13T01:43:06;7.45;;;3.58;;
61962;SDS011;47927;42.646;23.096;2023-07-13T01:45:32;6.47;;;3.33;;
61962;SDS011;47927;42.646;23.096;2023-07-13T01:47:57;7.60;;;3.42;;
61962;SDS011;47927;42.646;23.096;2023-07-13T01:50:24;9.55;;;3.88;;
61962;SDS011;47927;42.646;23.096;2023-07-13T01:52:51;6.22;;;3.17;;
61962;SDS011;47927;42.646;23.096;2023-07-13T01:55:17;6.47;;;3.28;;
61962;SDS011;47927;42.646;23.096;2023-07-13T01:57:43;6.20;;;3.55;;
61962;SDS011;47927;42.646;23.096;2023-07-13T02:00:09;9.25;;;3.65;;
61962;SDS011;47927;42.646;23.096;2023-07-13T02:02:42;6.80;;;3.30;;
61962;SDS011;47927;42.646;23.096;2023-07-13T02:05:09;5.85;;;3.28;;
61962;SDS011;47927;42.646;23.096;2023-07-13T02:07:35;5.18;;;2.92;;
61962;SDS011;47927;42.646;23.096;2023-07-13T02:10:02;5.75;;;3.47;;
61962;SDS011;47927;42.646;23.096;2023-07-13T02:12:29;8.82;;;3.78;;
61962;SDS011;47927;42.646;23.096;2023-07-13T02:14:55;7.28;;;3.88;;
61962;SDS011;47927;42.646;23.096;2023-07-13T02:17:20;7.57;;;3.90;;
61962;SDS011;47927;42.646;23.096;2023-07-13T02:19:46;9.00;;;3.67;;
61962;SDS011;47927;42.646;23.096;2023-07-13T02:22:12;6.25;;;3.40;;
61962;SDS011;47927;42.646;23.096;2023-07-13T02:24:37;10.93;;;3.60;;
61962;SDS011;47927;42.646;23.096;2023-07-13T02:27:04;9.95;;;3.70;;
61962;SDS011;47927;42.646;23.096;2023-07-13T02:29:30;9.63;;;4.00;;
61962;SDS011;47927;42.646;23.096;2023-07-13T02:31:55;8.60;;;3.33;;
61962;SDS011;47927;42.646;23.096;2023-07-13T02:34:21;5.03;;;3.20;;
61962;SDS011;47927;42.646;23.096;2023-07-13T02:36:47;7.38;;;3.30;;
61962;SDS011;47927;42.646;23.096;2023-07-13T02:39:13;5.72;;;3.58;;
61962;SDS011;47927;42.646;23.096;2023-07-13T02:41:38;5.95;;;3.65;;
61962;SDS011;47927;42.646;23.096;2023-07-13T02:44:23;7.25;;;3.72;;
61962;SDS011;47927;42.646;23.096;2023-07-13T02:46:48;6.43;;;3.75;;
61962;SDS011;47927;42.646;23.096;2023-07-13T02:49:14;6.10;;;3.58;;
61962;SDS011;47927;42.646;23.096;2023-07-13T02:51:39;6.32;;;3.83;;
61962;SDS011;47927;42.646;23.096;2023-07-13T02:54:05;7.57;;;3.70;;
61962;SDS011;47927;42.646;23.096;2023-07-13T02:56:31;5.93;;;3.85;;
61962;SDS011;47927;42.646;23.096;2023-07-13T02:58:57;8.30;;;4.30;;
61962;SDS011;47927;42.646;23.096;2023-07-13T03:01:23;6.80;;;3.78;;
61962;SDS011;47927;42.646;23.096;2023-07-13T03:03:49;6.97;;;4.22;;
61962;SDS011;47927;42.646;23.096;2023-07-13T03:06:17;6.20;;;3.90;;
61962;SDS011;47927;42.646;23.096;2023-07-13T03:08:47;5.63;;;3.70;;
61962;SDS011;47927;42.646;23.096;2023-07-13T03:11:16;8.60;;;4.20;;
61962;SDS011;47927;42.646;23.096;2023-07-13T03:13:46;14.73;;;4.07;;
61962;SDS011;47927;42.646;23.096;2023-07-13T03:16:13;7.43;;;4.45;;
61962;SDS011;47927;42.646;23.096;2023-07-13T03:18:42;8.77;;;3.80;;
61962;SDS011;47927;42.646;23.096;2023-07-13T03:21:09;6.45;;;4.40;;
61962;SDS011;47927;42.646;23.096;2023-07-13T03:23:35;7.13;;;4.07;;
61962;SDS011;47927;42.646;23.096;2023-07-13T03:26:02;6.13;;;4.28;;
61962;SDS011;47927;42.646;23.096;2023-07-13T03:28:29;8.63;;;4.07;;
61962;SDS011;47927;42.646;23.096;2023-07-13T03:31:00;9.48;;;3.95;;
61962;SDS011;47927;42.646;23.096;2023-07-13T03:33:26;6.65;;;4.10;;
61962;SDS011;47927;42.646;23.096;2023-07-13T03:35:52;7.15;;;4.10;;
61962;SDS011;47927;42.646;23.096;2023-07-13T03:38:18;6.60;;;3.97;;
61962;SDS011;47927;42.646;23.096;2023-07-13T03:40:44;6.75;;;4.13;;
61962;SDS011;47927;42.646;23.096;2023-07-13T03:43:10;6.40;;;3.75;;
61962;SDS011;47927;42.646;23.096;2023-07-13T03:45:37;6.63;;;3.80;;
61962;SDS011;47927;42.646;23.096;2023-07-13T03:48:03;10.60;;;3.95;;
61962;SDS011;47927;42.646;23.096;2023-07-13T03:50:30;7.35;;;3.97;;
61962;SDS011;47927;42.646;23.096;2023-07-13T03:52:59;7.00;;;4.15;;
61962;SDS011;47927;42.646;23.096;2023-07-13T03:55:25;7.53;;;4.22;;
61962;SDS011;47927;42.646;23.096;2023-07-13T04:01:01;12.10;;;4.15;;
61962;SDS011;47927;42.646;23.096;2023-07-13T04:03:29;10.48;;;4.50;;
61962;SDS011;47927;42.646;23.096;2023-07-13T04:05:58;6.25;;;3.83;;
61962;SDS011;47927;42.646;23.096;2023-07-13T04:08:29;9.07;;;4.13;;
61962;SDS011;47927;42.646;23.096;2023-07-13T04:10:56;5.90;;;4.03;;
61962;SDS011;47927;42.646;23.096;2023-07-13T04:13:22;5.70;;;3.70;;
61962;SDS011;47927;42.646;23.096;2023-07-13T04:15:48;6.32;;;4.10;;
61962;SDS011;47927;42.646;23.096;2023-07-13T04:18:14;7.30;;;4.05;;
61962;SDS011;47927;42.646;23.096;2023-07-13T04:20:39;6.90;;;4.53;;
61962;SDS011;47927;42.646;23.096;2023-07-13T04:23:05;8.57;;;4.18;;
61962;SDS011;47927;42.646;23.096;2023-07-13T04:25:30;6.95;;;3.92;;
61962;SDS011;47927;42.646;23.096;2023-07-13T04:27:56;6.93;;;4.25;;
61962;SDS011;47927;42.646;23.096;2023-07-13T04:30:22;5.88;;;4.25;;
61962;SDS011;47927;42.646;23.096;2023-07-13T04:32:48;12.80;;;4.45;;
61962;SDS011;47927;42.646;23.096;2023-07-13T04:35:15;8.38;;;4.18;;
61962;SDS011;47927;42.646;23.096;2023-07-13T04:37:40;5.50;;;4.28;;
61962;SDS011;47927;42.646;23.096;2023-07-13T04:40:06;8.40;;;4.22;;
61962;SDS011;47927;42.646;23.096;2023-07-13T04:42:36;7.03;;;4.30;;
61962;SDS011;47927;42.646;23.096;2023-07-13T04:45:02;8.38;;;4.10;;
61962;SDS011;47927;42.646;23.096;2023-07-13T04:47:29;5.50;;;4.10;;
61962;SDS011;47927;42.646;23.096;2023-07-13T04:49:55;7.68;;;4.63;;
61962;SDS011;47927;42.646;23.096;2023-07-13T04:52:22;8.00;;;4.78;;
61962;SDS011;47927;42.646;23.096;2023-07-13T04:54:48;7.43;;;4.30;;
61962;SDS011;47927;42.646;23.096;2023-07-13T04:57:14;6.68;;;4.35;;
61962;SDS011;47927;42.646;23.096;2023-07-13T04:59:39;9.55;;;4.53;;
61962;SDS011;47927;42.646;23.096;2023-07-13T05:02:05;6.30;;;4.40;;
61962;SDS011;47927;42.646;23.096;2023-07-13T05:04:31;8.68;;;4.70;;
61962;SDS011;47927;42.646;23.096;2023-07-13T05:06:56;6.20;;;4.07;;
61962;SDS011;47927;42.646;23.096;2023-07-13T05:09:22;7.32;;;4.75;;
61962;SDS011;47927;42.646;23.096;2023-07-13T05:11:47;7.13;;;4.75;;
61962;SDS011;47927;42.646;23.096;2023-07-13T05:14:13;7.97;;;4.72;;
61962;SDS011;47927;42.646;23.096;2023-07-13T05:16:40;6.72;;;4.45;;
61962;SDS011;47927;42.646;23.096;2023-07-13T05:19:05;9.40;;;4.57;;
61962;SDS011;47927;42.646;23.096;2023-07-13T05:21:31;10.43;;;5.40;;
61962;SDS011;47927;42.646;23.096;2023-07-13T05:23:57;10.43;;;5.18;;
61962;SDS011;47927;42.646;23.096;2023-07-13T05:26:22;12.05;;;5.18;;
61962;SDS011;47927;42.646;23.096;2023-07-13T05:28:48;12.35;;;5.60;;
61962;SDS011;47927;42.646;23.096;2023-07-13T05:31:13;9.85;;;5.15;;
61962;SDS011;47927;42.646;23.096;2023-07-13T05:33:39;13.85;;;5.25;;
61962;SDS011;47927;42.646;23.096;2023-07-13T05:36:05;8.82;;;4.53;;
61962;SDS011;47927;42.646;23.096;2023-07-13T05:38:32;9.50;;;4.63;;
61962;SDS011;47927;42.646;23.096;2023-07-13T05:40:58;10.18;;;5.30;;
61962;SDS011;47927;42.646;23.096;2023-07-13T05:59:30;21.77;;;9.88;;
61962;SDS011;47927;42.646;23.096;2023-07-13T06:01:56;21.70;;;9.63;;
61962;SDS011;47927;42.646;23.096;2023-07-13T06:04:22;18.25;;;7.55;;
61962;SDS011;47927;42.646;23.096;2023-07-13T06:06:47;17.77;;;7.65;;
61962;SDS011;47927;42.646;23.096;2023-07-13T06:09:13;18.23;;;7.93;;
61962;SDS011;47927;42.646;23.096;2023-07-13T06:11:38;18.70;;;7.07;;
61962;SDS011;47927;42.646;23.096;2023-07-13T06:14:04;20.95;;;7.40;;
61962;SDS011;47927;42.646;23.096;2023-07-13T06:16:30;17.90;;;6.75;;
61962;SDS011;47927;42.646;23.096;2023-07-13T06:18:55;13.80;;;7.15;;
61962;SDS011;47927;42.646;23.096;2023-07-13T06:21:21;13.40;;;6.20;;
61962;SDS011;47927;42.646;23.096;2023-07-13T06:23:48;12.25;;;6.82;;
61962;SDS011;47927;42.646;23.096;2023-07-13T06:26:15;15.68;;;6.75;;
61962;SDS011;47927;42.646;23.096;2023-07-13T06:28:41;16.83;;;7.82;;
61962;SDS011;47927;42.646;23.096;2023-07-13T06:31:07;23.25;;;13.63;;
61962;SDS011;47927;42.646;23.096;2023-07-13T06:33:34;19.33;;;7.40;;
61962;SDS011;47927;42.646;23.096;2023-07-13T06:36:00;15.00;;;6.50;;
61962;SDS011;47927;42.646;23.096;2023-07-13T06:38:27;19.77;;;6.65;;
61962;SDS011;47927;42.646;23.096;2023-07-13T06:40:52;19.73;;;6.15;;
61962;SDS011;47927;42.646;23.096;2023-07-13T06:43:18;19.50;;;6.00;;
61962;SDS011;47927;42.646;23.096;2023-07-13T06:45:46;14.45;;;6.50;;
61962;SDS011;47927;42.646;23.096;2023-07-13T06:48:17;18.95;;;6.00;;
61962;SDS011;47927;42.646;23.096;2023-07-13T06:50:44;17.45;;;6.10;;
61962;SDS011;47927;42.646;23.096;2023-07-13T06:53:11;15.70;;;5.75;;
61962;SDS011;47927;42.646;23.096;2023-07-13T06:55:37;20.23;;;6.20;;
61962;SDS011;47927;42.646;23.096;2023-07-13T06:58:03;19.15;;;6.40;;
61962;SDS011;47927;42.646;23.096;2023-07-13T07:00:29;13.20;;;5.47;;
61962;SDS011;47927;42.646;23.096;2023-07-13T07:02:54;15.77;;;6.22;;
61962;SDS011;47927;42.646;23.096;2023-07-13T07:05:20;26.63;;;6.18;;
61962;SDS011;47927;42.646;23.096;2023-07-13T07:07:50;17.27;;;6.60;;
61962;SDS011;47927;42.646;23.096;2023-07-13T07:10:16;17.42;;;5.97;;
61962;SDS011;47927;42.646;23.096;2023-07-13T07:12:42;16.27;;;6.28;;
61962;SDS011;47927;42.646;23.096;2023-07-13T07:15:08;18.70;;;6.20;;
61962;SDS011;47927;42.646;23.096;2023-07-13T07:17:34;19.65;;;6.72;;
61962;SDS011;47927;42.646;23.096;2023-07-13T07:19:59;15.13;;;5.40;;
61962;SDS011;47927;42.646;23.096;2023-07-13T07:22:25;15.25;;;6.05;;
61962;SDS011;47927;42.646;23.096;2023-07-13T07:24:53;16.55;;;6.00;;
61962;SDS011;47927;42.646;23.096;2023-07-13T07:27:19;18.02;;;5.85;;
61962;SDS011;47927;42.646;23.096;2023-07-13T07:29:45;16.33;;;5.93;;
61962;SDS011;47927;42.646;23.096;2023-07-13T07:32:11;16.02;;;5.78;;
61962;SDS011;47927;42.646;23.096;2023-07-13T07:34:37;16.85;;;6.38;;
61962;SDS011;47927;42.646;23.096;2023-07-13T07:37:03;17.38;;;6.07;;
61962;SDS011;47927;42.646;23.096;2023-07-13T07:39:29;17.65;;;6.78;;
61962;SDS011;47927;42.646;23.096;2023-07-13T07:41:55;16.90;;;6.70;;
61962;SDS011;47927;42.646;23.096;2023-07-13T07:44:20;21.38;;;8.40;;
61962;SDS011;47927;42.646;23.096;2023-07-13T07:46:46;21.17;;;7.30;;
61962;SDS011;47927;42.646;23.096;2023-07-13T07:49:12;20.40;;;7.85;;
61962;SDS011;47927;42.646;23.096;2023-07-13T07:51:37;19.45;;;7.07;;
61962;SDS011;47927;42.646;23.096;2023-07-13T07:54:03;27.20;;;7.47;;
61962;SDS011;47927;42.646;23.096;2023-07-13T07:56:30;20.38;;;7.32;;
61962;SDS011;47927;42.646;23.096;2023-07-13T07:58:55;22.13;;;7.43;;
61962;SDS011;47927;42.646;23.096;2023-07-13T08:01:21;37.72;;;8.32;;
61962;SDS011;47927;42.646;23.096;2023-07-13T08:03:47;20.00;;;7.57;;
61962;SDS011;47927;42.646;23.096;2023-07-13T08:06:13;13.90;;;6.30;;
61962;SDS011;47927;42.646;23.096;2023-07-13T08:08:38;19.52;;;6.30;;
61962;SDS011;47927;42.646;23.096;2023-07-13T08:11:07;26.75;;;7.05;;
61962;SDS011;47927;42.646;23.096;2023-07-13T08:13:33;17.05;;;5.85;;
61962;SDS011;47927;42.646;23.096;2023-07-13T08:15:59;18.00;;;6.55;;
61962;SDS011;47927;42.646;23.096;2023-07-13T08:18:25;12.07;;;5.50;;
61962;SDS011;47927;42.646;23.096;2023-07-13T08:20:50;10.77;;;5.45;;
61962;SDS011;47927;42.646;23.096;2023-07-13T08:23:17;14.95;;;5.63;;
61962;SDS011;47927;42.646;23.096;2023-07-13T08:25:42;11.00;;;5.30;;
61962;SDS011;47927;42.646;23.096;2023-07-13T08:28:15;15.05;;;4.97;;
61962;SDS011;47927;42.646;23.096;2023-07-13T08:30:40;10.40;;;5.10;;
61962;SDS011;47927;42.646;23.096;2023-07-13T08:33:06;7.55;;;4.68;;
61962;SDS011;47927;42.646;23.096;2023-07-13T08:35:31;11.98;;;4.57;;
61962;SDS011;47927;42.646;23.096;2023-07-13T08:37:57;8.25;;;4.38;;
61962;SDS011;47927;42.646;23.096;2023-07-13T08:40:24;9.77;;;4.03;;
61962;SDS011;47927;42.646;23.096;2023-07-13T08:42:53;8.10;;;4.20;;
61962;SDS011;47927;42.646;23.096;2023-07-13T08:45:22;6.70;;;3.75;;
61962;SDS011;47927;42.646;23.096;2023-07-13T08:47:53;8.00;;;4.07;;
61962;SDS011;47927;42.646;23.096;2023-07-13T08:50:29;7.25;;;3.97;;
61962;SDS011;47927;42.646;23.096;2023-07-13T08:53:04;7.35;;;4.03;;
61962;SDS011;47927;42.646;23.096;2023-07-13T08:55:33;7.75;;;4.07;;
61962;SDS011;47927;42.646;23.096;2023-07-13T08:58:05;5.68;;;3.17;;
61962;SDS011;47927;42.646;23.096;2023-07-13T09:00:38;6.75;;;3.50;;
61962;SDS011;47927;42.646;23.096;2023-07-13T09:03:07;8.05;;;3.22;;
61962;SDS011;47927;42.646;23.096;2023-07-13T09:05:43;8.45;;;4.10;;
61962;SDS011;47927;42.646;23.096;2023-07-13T09:10:53;9.98;;;3.80;;
61962;SDS011;47927;42.646;23.096;2023-07-13T09:13:37;5.50;;;3.40;;
61962;SDS011;47927;42.646;23.096;2023-07-13T09:16:08;6.95;;;3.85;;
61962;SDS011;47927;42.646;23.096;2023-07-13T09:18:35;6.55;;;3.80;;
61962;SDS011;47927;42.646;23.096;2023-07-13T09:23:53;9.18;;;3.80;;
61962;SDS011;47927;42.646;23.096;2023-07-13T09:26:22;11.80;;;5.15;;
61962;SDS011;47927;42.646;23.096;2023-07-13T09:28:57;10.15;;;4.07;;
61962;SDS011;47927;42.646;23.096;2023-07-13T09:31:31;7.97;;;3.72;;
61962;SDS011;47927;42.646;23.096;2023-07-13T09:33:59;9.48;;;3.80;;
61962;SDS011;47927;42.646;23.096;2023-07-13T09:44:10;6.00;;;3.53;;
61962;SDS011;47927;42.646;23.096;2023-07-13T09:46:38;6.55;;;3.45;;
61962;SDS011;47927;42.646;23.096;2023-07-13T09:49:11;6.85;;;3.83;;
61962;SDS011;47927;42.646;23.096;2023-07-13T09:51:38;6.30;;;3.47;;
61962;SDS011;47927;42.646;23.096;2023-07-13T09:54:09;7.80;;;3.42;;
61962;SDS011;47927;42.646;23.096;2023-07-13T09:56:43;8.90;;;3.45;;
61962;SDS011;47927;42.646;23.096;2023-07-13T09:59:23;9.73;;;3.70;;
61962;SDS011;47927;42.646;23.096;2023-07-13T10:01:52;11.43;;;3.88;;
61962;SDS011;47927;42.646;23.096;2023-07-13T10:04:18;7.72;;;3.72;;
61962;SDS011;47927;42.646;23.096;2023-07-13T10:06:45;7.75;;;3.20;;
61962;SDS011;47927;42.646;23.096;2023-07-13T10:09:15;7.18;;;3.78;;
61962;SDS011;47927;42.646;23.096;2023-07-13T10:11:42;6.63;;;3.30;;
61962;SDS011;47927;42.646;23.096;2023-07-13T10:14:16;9.75;;;3.83;;
61962;SDS011;47927;42.646;23.096;2023-07-13T10:16:46;6.68;;;3.65;;
61962;SDS011;47927;42.646;23.096;2023-07-13T10:19:13;7.50;;;3.83;;
61962;SDS011;47927;42.646;23.096;2023-07-13T10:21:56;8.90;;;3.50;;
61962;SDS011;47927;42.646;23.096;2023-07-13T10:24:31;10.25;;;3.85;;
61962;SDS011;47927;42.646;23.096;2023-07-13T10:27:16;6.30;;;3.47;;
61962;SDS011;47927;42.646;23.096;2023-07-13T10:29:45;9.85;;;3.53;;
61962;SDS011;47927;42.646;23.096;2023-07-13T10:32:13;7.55;;;3.65;;
61962;SDS011;47927;42.646;23.096;2023-07-13T10:34:43;10.02;;;3.75;;
61962;SDS011;47927;42.646;23.096;2023-07-13T10:37:15;7.15;;;3.83;;
61962;SDS011;47927;42.646;23.096;2023-07-13T10:39:45;7.43;;;3.85;;
61962;SDS011;47927;42.646;23.096;2023-07-13T10:42:14;7.63;;;3.80;;
61962;SDS011;47927;42.646;23.096;2023-07-13T10:44:52;7.93;;;3.63;;
61962;SDS011;47927;42.646;23.096;2023-07-13T10:47:17;9.50;;;3.63;;
61962;SDS011;47927;42.646;23.096;2023-07-13T10:49:44;8.90;;;3.65;;
61962;SDS011;47927;42.646;23.096;2023-07-13T10:57:59;9.15;;;3.75;;
61962;SDS011;47927;42.646;23.096;2023-07-13T11:00:26;11.73;;;3.97;;
61962;SDS011;47927;42.646;23.096;2023-07-13T11:02:56;8.85;;;3.70;;
61962;SDS011;47927;42.646;23.096;2023-07-13T11:05:30;8.20;;;3.60;;
61962;SDS011;47927;42.646;23.096;2023-07-13T11:08:13;6.28;;;3.70;;
61962;SDS011;47927;42.646;23.096;2023-07-13T11:10:47;9.23;;;3.72;;
61962;SDS011;47927;42.646;23.096;2023-07-13T11:18:48;6.97;;;3.75;;
61962;SDS011;47927;42.646;23.096;2023-07-13T11:21:34;9.57;;;3.53;;
61962;SDS011;47927;42.646;23.096;2023-07-13T11:24:04;11.80;;;3.90;;
61962;SDS011;47927;42.646;23.096;2023-07-13T11:31:42;7.78;;;3.15;;
61962;SDS011;47927;42.646;23.096;2023-07-13T11:34:16;10.43;;;3.75;;
61962;SDS011;47927;42.646;23.096;2023-07-13T11:36:46;12.60;;;4.03;;
61962;SDS011;47927;42.646;23.096;2023-07-13T11:41:58;8.55;;;3.92;;
61962;SDS011;47927;42.646;23.096;2023-07-13T11:44:29;8.50;;;3.97;;
61962;SDS011;47927;42.646;23.096;2023-07-13T11:46:56;8.38;;;3.55;;
61962;SDS011;47927;42.646;23.096;2023-07-13T11:49:28;10.77;;;4.20;;
61962;SDS011;47927;42.646;23.096;2023-07-13T11:51:55;5.75;;;3.50;;
61962;SDS011;47927;42.646;23.096;2023-07-13T11:54:27;8.82;;;4.10;;
61962;SDS011;47927;42.646;23.096;2023-07-13T11:56:55;11.43;;;3.85;;
61962;SDS011;47927;42.646;23.096;2023-07-13T11:59:26;8.43;;;4.05;;
61962;SDS011;47927;42.646;23.096;2023-07-13T12:01:54;7.20;;;3.50;;
61962;SDS011;47927;42.646;23.096;2023-07-13T12:04:24;9.68;;;3.90;;
61962;SDS011;47927;42.646;23.096;2023-07-13T12:07:03;8.25;;;4.25;;
61962;SDS011;47927;42.646;23.096;2023-07-13T12:09:33;12.43;;;3.85;;
61962;SDS011;47927;42.646;23.096;2023-07-13T12:12:01;11.75;;;4.00;;
61962;SDS011;47927;42.646;23.096;2023-07-13T12:14:27;8.80;;;4.68;;
61962;SDS011;47927;42.646;23.096;2023-07-13T12:16:53;10.60;;;3.97;;
61962;SDS011;47927;42.646;23.096;2023-07-13T12:19:25;11.02;;;3.72;;
61962;SDS011;47927;42.646;23.096;2023-07-13T12:21:56;7.72;;;3.78;;
61962;SDS011;47927;42.646;23.096;2023-07-13T12:24:42;7.13;;;3.90;;
61962;SDS011;47927;42.646;23.096;2023-07-13T12:27:41;8.88;;;3.60;;
61962;SDS011;47927;42.646;23.096;2023-07-13T12:30:02;8.60;;;3.72;;
61962;SDS011;47927;42.646;23.096;2023-07-13T12:32:30;10.82;;;3.80;;
61962;SDS011;47927;42.646;23.096;2023-07-13T12:35:17;8.63;;;4.30;;
61962;SDS011;47927;42.646;23.096;2023-07-13T12:37:44;7.90;;;4.03;;
61962;SDS011;47927;42.646;23.096;2023-07-13T12:40:19;7.93;;;3.65;;
61962;SDS011;47927;42.646;23.096;2023-07-13T12:42:47;9.02;;;3.70;;
61962;SDS011;47927;42.646;23.096;2023-07-13T12:47:50;8.57;;;3.60;;
61962;SDS011;47927;42.646;23.096;2023-07-13T12:50:22;6.90;;;3.78;;
61962;SDS011;47927;42.646;23.096;2023-07-13T12:52:54;9.93;;;4.50;;
61962;SDS011;47927;42.646;23.096;2023-07-13T12:55:44;9.75;;;3.70;;
61962;SDS011;47927;42.646;23.096;2023-07-13T12:58:17;8.20;;;3.55;;
61962;SDS011;47927;42.646;23.096;2023-07-13T13:00:50;8.95;;;4.10;;
61962;SDS011;47927;42.646;23.096;2023-07-13T13:06:05;8.90;;;3.97;;
61962;SDS011;47927;42.646;23.096;2023-07-13T13:08:58;6.65;;;3.58;;
61962;SDS011;47927;42.646;23.096;2023-07-13T13:11:25;11.48;;;3.88;;
61962;SDS011;47927;42.646;23.096;2023-07-13T13:13:52;13.45;;;3.65;;
61962;SDS011;47927;42.646;23.096;2023-07-13T13:16:34;9.65;;;4.50;;
61962;SDS011;47927;42.646;23.096;2023-07-13T13:19:16;8.85;;;4.00;;
61962;SDS011;47927;42.646;23.096;2023-07-13T13:21:44;7.13;;;3.70;;
61962;SDS011;47927;42.646;23.096;2023-07-13T13:24:15;10.35;;;3.45;;
61962;SDS011;47927;42.646;23.096;2023-07-13T13:26:43;7.47;;;3.47;;
61962;SDS011;47927;42.646;23.096;2023-07-13T13:29:13;9.02;;;3.67;;
61962;SDS011;47927;42.646;23.096;2023-07-13T13:31:41;8.95;;;3.88;;
61962;SDS011;47927;42.646;23.096;2023-07-13T13:34:11;10.75;;;3.80;;
61962;SDS011;47927;42.646;23.096;2023-07-13T13:36:40;12.43;;;4.45;;
61962;SDS011;47927;42.646;23.096;2023-07-13T13:39:18;11.90;;;3.80;;
61962;SDS011;47927;42.646;23.096;2023-07-13T13:41:49;6.65;;;3.97;;
61962;SDS011;47927;42.646;23.096;2023-07-13T13:44:16;7.95;;;3.80;;
61962;SDS011;47927;42.646;23.096;2023-07-13T13:46:44;10.38;;;4.25;;
61962;SDS011;47927;42.646;23.096;2023-07-13T13:49:16;9.65;;;3.97;;
61962;SDS011;47927;42.646;23.096;2023-07-13T13:51:44;14.75;;;3.83;;
61962;SDS011;47927;42.646;23.096;2023-07-13T13:54:10;8.05;;;3.58;;
61962;SDS011;47927;42.646;23.096;2023-07-13T13:56:41;10.93;;;3.80;;
61962;SDS011;47927;42.646;23.096;2023-07-13T13:59:08;11.48;;;3.80;;
61962;SDS011;47927;42.646;23.096;2023-07-13T14:01:34;11.48;;;4.47;;
61962;SDS011;47927;42.646;23.096;2023-07-13T14:04:00;11.77;;;4.35;;
61962;SDS011;47927;42.646;23.096;2023-07-13T14:06:26;12.93;;;5.25;;
61962;SDS011;47927;42.646;23.096;2023-07-13T14:08:52;17.17;;;4.43;;
61962;SDS011;47927;42.646;23.096;2023-07-13T14:11:20;9.73;;;4.00;;
61962;SDS011;47927;42.646;23.096;2023-07-13T14:13:53;7.50;;;3.78;;
61962;SDS011;47927;42.646;23.096;2023-07-13T14:16:25;9.43;;;4.13;;
61962;SDS011;47927;42.646;23.096;2023-07-13T14:18:53;8.05;;;3.47;;
61962;SDS011;47927;42.646;23.096;2023-07-13T14:21:21;7.90;;;4.18;;
61962;SDS011;47927;42.646;23.096;2023-07-13T14:23:47;9.50;;;3.78;;
61962;SDS011;47927;42.646;23.096;2023-07-13T14:26:15;9.75;;;3.55;;
61962;SDS011;47927;42.646;23.096;2023-07-13T14:28:45;11.02;;;3.90;;
61962;SDS011;47927;42.646;23.096;2023-07-13T14:31:13;10.32;;;3.55;;
61962;SDS011;47927;42.646;23.096;2023-07-13T14:33:40;16.52;;;4.43;;
61962;SDS011;47927;42.646;23.096;2023-07-13T14:39:08;10.73;;;4.88;;
61962;SDS011;47927;42.646;23.096;2023-07-13T14:41:38;12.98;;;3.78;;
61962;SDS011;47927;42.646;23.096;2023-07-13T14:44:11;12.45;;;4.50;;
61962;SDS011;47927;42.646;23.096;2023-07-13T14:46:40;9.43;;;3.80;;
61962;SDS011;47927;42.646;23.096;2023-07-13T14:51:45;10.25;;;4.60;;
61962;SDS011;47927;42.646;23.096;2023-07-13T14:54:10;9.18;;;4.25;;
61962;SDS011;47927;42.646;23.096;2023-07-13T14:56:36;13.23;;;4.05;;
61962;SDS011;47927;42.646;23.096;2023-07-13T14:59:02;8.85;;;3.85;;
61962;SDS011;47927;42.646;23.096;2023-07-13T15:01:28;9.98;;;5.00;;
61962;SDS011;47927;42.646;23.096;2023-07-13T15:03:55;9.25;;;3.53;;
61962;SDS011;47927;42.646;23.096;2023-07-13T15:06:21;7.07;;;3.60;;
61962;SDS011;47927;42.646;23.096;2023-07-13T15:08:46;10.77;;;3.90;;
61962;SDS011;47927;42.646;23.096;2023-07-13T15:11:13;11.52;;;3.78;;
61962;SDS011;47927;42.646;23.096;2023-07-13T15:13:40;10.55;;;4.10;;
61962;SDS011;47927;42.646;23.096;2023-07-13T15:16:18;9.57;;;3.85;;
61962;SDS011;47927;42.646;23.096;2023-07-13T15:18:47;9.35;;;3.65;;
61962;SDS011;47927;42.646;23.096;2023-07-13T15:21:16;10.75;;;4.30;;
61962;SDS011;47927;42.646;23.096;2023-07-13T15:23:45;9.02;;;3.65;;
61962;SDS011;47927;42.646;23.096;2023-07-13T15:26:12;8.55;;;3.95;;
61962;SDS011;47927;42.646;23.096;2023-07-13T15:28:40;7.80;;;3.88;;
61962;SDS011;47927;42.646;23.096;2023-07-13T15:33:44;11.13;;;4.40;;
61962;SDS011;47927;42.646;23.096;2023-07-13T15:36:10;7.85;;;3.67;;
61962;SDS011;47927;42.646;23.096;2023-07-13T15:38:35;13.80;;;3.95;;
61962;SDS011;47927;42.646;23.096;2023-07-13T15:41:10;10.50;;;3.72;;
61962;SDS011;47927;42.646;23.096;2023-07-13T15:43:42;8.77;;;3.90;;